sensor_id;sensor_type;location;lat;lon;timestamp;temperature;humidity
15717;DHT22;7960;50.908;4.204;2023-04-15T00:00:09;11.10;99.90
15717;DHT22;7960;50.908;4.204;2023-04-15T00:02:36;11.00;99.90
15717;DHT22;7960;50.908;4.204;2023-04-15T00:05:03;10.80;99.90
15717;DHT22;7960;50.908;4.204;2023-04-15T00:07:30;10.80;99.90
15717;DHT22;7960;50.908;4.204;2023-04-15T00:09:58;11.00;99.90
15717;DHT22;7960;50.908;4.204;2023-04-15T00:12:25;11.00;99.90
15717;DHT22;7960;50.908;4.204;2023-04-15T00:14:54;11.10;99.90
15717;DHT22;7960;50.908;4.204;2023-04-15T00:17:21;11.20;99.90
15717;DHT22;7960;50.908;4.204;2023-04-15T00:19:48;11.20;99.90
15717;DHT22;7960;50.908;4.204;2023-04-15T00:22:15;11.10;99.90
15717;DHT22;7960;50.908;4.204;2023-04-15T00:24:42;11.00;99.90
15717;DHT22;7960;50.908;4.204;2023-04-15T00:27:09;10.90;99.90
15717;DHT22;7960;50.908;4.204;2023-04-15T00:29:36;10.80;99.90
15717;DHT22;7960;50.908;4.204;2023-04-15T00:32:05;11.00;99.90
15717;DHT22;7960;50.908;4.204;2023-04-15T00:34:32;10.80;99.90
15717;DHT22;7960;50.908;4.204;2023-04-15T00:36:59;10.60;99.90
15717;DHT22;7960;50.908;4.204;2023-04-15T00:39:26;10.50;99.90
15717;DHT22;7960;50.908;4.204;2023-04-15T00:41:54;10.40;99.90
15717;DHT22;7960;50.908;4.204;2023-04-15T00:44:21;10.50;99.90
15717;DHT22;7960;50.908;4.204;2023-04-15T00:46:50;10.70;99.90
15717;DHT22;7960;50.908;4.204;2023-04-15T00:49:19;10.90;99.90
15717;DHT22;7960;50.908;4.204;2023-04-15T00:51:45;10.90;99.90
15717;DHT22;7960;50.908;4.204;2023-04-15T00:54:12;10.80;99.90
15717;DHT22;7960;50.908;4.204;2023-04-15T00:56:39;10.40;99.90
15717;DHT22;7960;50.908;4.204;2023-04-15T00:59:07;10.30;99.90
15717;DHT22;7960;50.908;4.204;2023-04-15T01:01:35;10.60;99.90
15717;DHT22;7960;50.908;4.204;2023-04-15T01:04:03;10.80;99.90
15717;DHT22;7960;50.908;4.204;2023-04-15T01:06:31;10.90;99.90
15717;DHT22;7960;50.908;4.204;2023-04-15T01:08:59;10.90;99.90
15717;DHT22;7960;50.908;4.204;2023-04-15T01:11:26;10.80;99.90
15717;DHT22;7960;50.908;4.204;2023-04-15T01:13:54;10.60;99.90
15717;DHT22;7960;50.908;4.204;2023-04-15T01:16:21;10.60;99.90
15717;DHT22;7960;50.908;4.204;2023-04-15T01:18:48;10.50;99.90
15717;DHT22;7960;50.908;4.204;2023-04-15T01:21:17;10.50;99.90
15717;DHT22;7960;50.908;4.204;2023-04-15T01:23:46;10.50;99.90
15717;DHT22;7960;50.908;4.204;2023-04-15T01:26:15;10.60;99.90
15717;DHT22;7960;50.908;4.204;2023-04-15T01:28:42;10.50;99.90
15717;DHT22;7960;50.908;4.204;2023-04-15T01:31:12;10.40;99.90
15717;DHT22;7960;50.908;4.204;2023-04-15T01:33:40;10.50;99.90
15717;DHT22;7960;50.908;4.204;2023-04-15T01:36:08;10.50;99.90
15717;DHT22;7960;50.908;4.204;2023-04-15T01:38:36;10.60;99.90
15717;DHT22;7960;50.908;4.204;2023-04-15T01:41:03;10.70;99.90
15717;DHT22;7960;50.908;4.204;2023-04-15T01:43:33;10.60;99.90
15717;DHT22;7960;50.908;4.204;2023-04-15T01:46:00;10.60;99.90
15717;DHT22;7960;50.908;4.204;2023-04-15T01:48:27;10.60;99.90
15717;DHT22;7960;50.908;4.204;2023-04-15T01:50:54;10.40;99.90
15717;DHT22;7960;50.908;4.204;2023-04-15T01:53:22;10.30;99.90
15717;DHT22;7960;50.908;4.204;2023-04-15T01:55:50;10.20;99.90
15717;DHT22;7960;50.908;4.204;2023-04-15T01:58:17;10.00;99.90
15717;DHT22;7960;50.908;4.204;2023-04-15T02:00:45;10.00;99.90
15717;DHT22;7960;50.908;4.204;2023-04-15T02:03:12;10.20;99.90
15717;DHT22;7960;50.908;4.204;2023-04-15T02:05:39;10.40;99.90
15717;DHT22;7960;50.908;4.204;2023-04-15T02:08:06;10.30;99.90
15717;DHT22;7960;50.908;4.204;2023-04-15T02:10:32;10.20;99.90
15717;DHT22;7960;50.908;4.204;2023-04-15T02:12:59;10.30;99.90
15717;DHT22;7960;50.908;4.204;2023-04-15T02:15:26;10.40;99.90
15717;DHT22;7960;50.908;4.204;2023-04-15T02:17:54;10.30;99.90
15717;DHT22;7960;50.908;4.204;2023-04-15T02:20:22;10.30;99.90
15717;DHT22;7960;50.908;4.204;2023-04-15T02:22:49;10.30;99.90
15717;DHT22;7960;50.908;4.204;2023-04-15T02:25:16;10.20;99.90
15717;DHT22;7960;50.908;4.204;2023-04-15T02:27:44;10.20;99.90
15717;DHT22;7960;50.908;4.204;2023-04-15T02:30:11;10.30;99.90
15717;DHT22;7960;50.908;4.204;2023-04-15T02:32:39;10.30;99.90
15717;DHT22;7960;50.908;4.204;2023-04-15T02:35:09;10.30;99.90
15717;DHT22;7960;50.908;4.204;2023-04-15T02:37:37;10.40;99.90
15717;DHT22;7960;50.908;4.204;2023-04-15T02:40:08;10.50;99.90
15717;DHT22;7960;50.908;4.204;2023-04-15T02:42:36;10.50;99.90
15717;DHT22;7960;50.908;4.204;2023-04-15T02:45:04;10.60;99.90
15717;DHT22;7960;50.908;4.204;2023-04-15T02:47:31;10.60;99.90
15717;DHT22;7960;50.908;4.204;2023-04-15T02:49:58;10.60;99.90
15717;DHT22;7960;50.908;4.204;2023-04-15T02:52:27;10.60;99.90
15717;DHT22;7960;50.908;4.204;2023-04-15T02:54:54;10.50;99.90
15717;DHT22;7960;50.908;4.204;2023-04-15T02:57:25;10.50;99.90
15717;DHT22;7960;50.908;4.204;2023-04-15T02:59:52;10.40;99.90
15717;DHT22;7960;50.908;4.204;2023-04-15T03:02:19;10.40;99.90
15717;DHT22;7960;50.908;4.204;2023-04-15T03:04:45;10.40;99.90
15717;DHT22;7960;50.908;4.204;2023-04-15T03:07:13;10.30;99.90
15717;DHT22;7960;50.908;4.204;2023-04-15T03:09:41;10.30;99.90
15717;DHT22;7960;50.908;4.204;2023-04-15T03:12:08;10.20;99.90
15717;DHT22;7960;50.908;4.204;2023-04-15T03:14:35;10.30;99.90
15717;DHT22;7960;50.908;4.204;2023-04-15T03:17:02;10.20;99.90
15717;DHT22;7960;50.908;4.204;2023-04-15T03:19:28;10.10;99.90
15717;DHT22;7960;50.908;4.204;2023-04-15T03:21:56;10.20;99.90
15717;DHT22;7960;50.908;4.204;2023-04-15T03:24:23;10.40;99.90
15717;DHT22;7960;50.908;4.204;2023-04-15T03:26:51;10.30;99.90
15717;DHT22;7960;50.908;4.204;2023-04-15T03:29:19;10.30;99.90
15717;DHT22;7960;50.908;4.204;2023-04-15T03:31:46;10.10;99.90
15717;DHT22;7960;50.908;4.204;2023-04-15T03:34:13;10.00;99.90
15717;DHT22;7960;50.908;4.204;2023-04-15T03:36:40;9.90;99.90
15717;DHT22;7960;50.908;4.204;2023-04-15T03:39:07;9.80;99.90
15717;DHT22;7960;50.908;4.204;2023-04-15T03:41:34;9.60;99.90
15717;DHT22;7960;50.908;4.204;2023-04-15T03:44:02;9.60;99.90
15717;DHT22;7960;50.908;4.204;2023-04-15T03:46:29;9.50;99.90
15717;DHT22;7960;50.908;4.204;2023-04-15T03:48:55;9.30;99.90
15717;DHT22;7960;50.908;4.204;2023-04-15T03:51:22;9.30;99.90
15717;DHT22;7960;50.908;4.204;2023-04-15T03:53:49;9.30;99.90
15717;DHT22;7960;50.908;4.204;2023-04-15T03:56:16;9.30;99.90
15717;DHT22;7960;50.908;4.204;2023-04-15T03:58:43;9.40;99.90
15717;DHT22;7960;50.908;4.204;2023-04-15T04:01:11;9.40;99.90
15717;DHT22;7960;50.908;4.204;2023-04-15T04:03:38;9.40;99.90
15717;DHT22;7960;50.908;4.204;2023-04-15T04:06:05;9.40;99.90
15717;DHT22;7960;50.908;4.204;2023-04-15T04:08:32;9.40;99.90
15717;DHT22;7960;50.908;4.204;2023-04-15T04:10:59;9.40;99.90
15717;DHT22;7960;50.908;4.204;2023-04-15T04:13:26;9.50;99.90
15717;DHT22;7960;50.908;4.204;2023-04-15T04:15:53;9.50;99.90
15717;DHT22;7960;50.908;4.204;2023-04-15T04:18:21;9.40;99.90
15717;DHT22;7960;50.908;4.204;2023-04-15T04:20:48;9.30;99.90
15717;DHT22;7960;50.908;4.204;2023-04-15T04:23:15;9.20;99.90
15717;DHT22;7960;50.908;4.204;2023-04-15T04:25:42;9.30;99.90
15717;DHT22;7960;50.908;4.204;2023-04-15T04:28:09;9.50;99.90
15717;DHT22;7960;50.908;4.204;2023-04-15T04:30:36;9.50;99.90
15717;DHT22;7960;50.908;4.204;2023-04-15T04:33:03;9.50;99.90
15717;DHT22;7960;50.908;4.204;2023-04-15T04:35:31;9.50;99.90
15717;DHT22;7960;50.908;4.204;2023-04-15T04:37:59;9.50;99.90
15717;DHT22;7960;50.908;4.204;2023-04-15T04:40:26;9.40;99.90
15717;DHT22;7960;50.908;4.204;2023-04-15T04:42:53;9.40;99.90
15717;DHT22;7960;50.908;4.204;2023-04-15T04:45:20;9.50;99.90
15717;DHT22;7960;50.908;4.204;2023-04-15T04:47:47;9.50;99.90
15717;DHT22;7960;50.908;4.204;2023-04-15T04:50:14;9.40;99.90
15717;DHT22;7960;50.908;4.204;2023-04-15T04:52:42;9.40;99.90
15717;DHT22;7960;50.908;4.204;2023-04-15T04:55:09;9.50;99.90
15717;DHT22;7960;50.908;4.204;2023-04-15T04:57:36;9.30;99.90
15717;DHT22;7960;50.908;4.204;2023-04-15T05:00:05;9.10;99.90
15717;DHT22;7960;50.908;4.204;2023-04-15T05:02:33;9.10;99.90
15717;DHT22;7960;50.908;4.204;2023-04-15T05:05:00;9.00;99.90
15717;DHT22;7960;50.908;4.204;2023-04-15T05:07:27;9.10;99.90
15717;DHT22;7960;50.908;4.204;2023-04-15T05:09:55;9.00;99.90
15717;DHT22;7960;50.908;4.204;2023-04-15T05:12:22;8.90;99.90
15717;DHT22;7960;50.908;4.204;2023-04-15T05:14:49;8.90;99.90
15717;DHT22;7960;50.908;4.204;2023-04-15T05:17:15;8.90;99.90
15717;DHT22;7960;50.908;4.204;2023-04-15T05:19:42;9.00;99.90
15717;DHT22;7960;50.908;4.204;2023-04-15T05:22:09;9.30;99.90
15717;DHT22;7960;50.908;4.204;2023-04-15T05:24:36;9.40;99.90
15717;DHT22;7960;50.908;4.204;2023-04-15T05:27:04;9.40;99.90
15717;DHT22;7960;50.908;4.204;2023-04-15T05:29:32;9.40;99.90
15717;DHT22;7960;50.908;4.204;2023-04-15T05:31:59;9.40;99.90
15717;DHT22;7960;50.908;4.204;2023-04-15T05:34:26;9.40;99.90
15717;DHT22;7960;50.908;4.204;2023-04-15T05:36:53;9.40;99.90
15717;DHT22;7960;50.908;4.204;2023-04-15T05:39:20;9.40;99.90
15717;DHT22;7960;50.908;4.204;2023-04-15T05:41:47;9.50;99.90
15717;DHT22;7960;50.908;4.204;2023-04-15T05:44:15;9.30;99.90
15717;DHT22;7960;50.908;4.204;2023-04-15T05:46:42;9.20;99.90
15717;DHT22;7960;50.908;4.204;2023-04-15T05:49:08;9.10;99.90
15717;DHT22;7960;50.908;4.204;2023-04-15T05:51:35;9.10;99.90
15717;DHT22;7960;50.908;4.204;2023-04-15T05:54:02;9.20;99.90
15717;DHT22;7960;50.908;4.204;2023-04-15T05:56:29;9.20;99.90
15717;DHT22;7960;50.908;4.204;2023-04-15T05:58:56;9.20;99.90
15717;DHT22;7960;50.908;4.204;2023-04-15T06:01:24;9.20;99.90
15717;DHT22;7960;50.908;4.204;2023-04-15T06:03:51;9.30;99.90
15717;DHT22;7960;50.908;4.204;2023-04-15T06:06:17;9.30;99.90
15717;DHT22;7960;50.908;4.204;2023-04-15T06:08:44;9.30;99.90
15717;DHT22;7960;50.908;4.204;2023-04-15T06:11:11;9.40;99.90
15717;DHT22;7960;50.908;4.204;2023-04-15T06:13:38;9.40;99.90
15717;DHT22;7960;50.908;4.204;2023-04-15T06:16:06;9.50;99.90
15717;DHT22;7960;50.908;4.204;2023-04-15T06:18:34;9.60;99.90
15717;DHT22;7960;50.908;4.204;2023-04-15T06:21:01;9.60;99.90
15717;DHT22;7960;50.908;4.204;2023-04-15T06:23:28;9.60;99.90
15717;DHT22;7960;50.908;4.204;2023-04-15T06:25:54;9.60;99.90
15717;DHT22;7960;50.908;4.204;2023-04-15T06:28:21;9.70;99.90
15717;DHT22;7960;50.908;4.204;2023-04-15T06:30:48;9.70;99.90
15717;DHT22;7960;50.908;4.204;2023-04-15T06:33:15;9.80;99.90
15717;DHT22;7960;50.908;4.204;2023-04-15T06:35:43;9.70;99.90
15717;DHT22;7960;50.908;4.204;2023-04-15T06:38:10;9.80;99.90
15717;DHT22;7960;50.908;4.204;2023-04-15T06:40:37;10.00;99.90
15717;DHT22;7960;50.908;4.204;2023-04-15T06:43:03;10.00;99.90
15717;DHT22;7960;50.908;4.204;2023-04-15T06:45:30;10.00;99.90
15717;DHT22;7960;50.908;4.204;2023-04-15T06:47:57;9.90;99.90
15717;DHT22;7960;50.908;4.204;2023-04-15T06:50:24;10.00;99.90
15717;DHT22;7960;50.908;4.204;2023-04-15T06:52:53;10.00;99.90
15717;DHT22;7960;50.908;4.204;2023-04-15T06:55:20;10.00;99.90
15717;DHT22;7960;50.908;4.204;2023-04-15T06:57:47;9.90;99.90
15717;DHT22;7960;50.908;4.204;2023-04-15T07:00:14;9.90;99.90
15717;DHT22;7960;50.908;4.204;2023-04-15T07:02:41;9.90;99.90
15717;DHT22;7960;50.908;4.204;2023-04-15T07:05:08;9.90;99.90
15717;DHT22;7960;50.908;4.204;2023-04-15T07:07:34;9.90;99.90
15717;DHT22;7960;50.908;4.204;2023-04-15T07:10:03;10.00;99.90
15717;DHT22;7960;50.908;4.204;2023-04-15T07:12:30;10.00;99.90
15717;DHT22;7960;50.908;4.204;2023-04-15T07:14:57;10.10;99.90
15717;DHT22;7960;50.908;4.204;2023-04-15T07:17:24;10.10;99.90
15717;DHT22;7960;50.908;4.204;2023-04-15T07:19:51;10.00;99.90
15717;DHT22;7960;50.908;4.204;2023-04-15T07:22:18;10.00;99.90
15717;DHT22;7960;50.908;4.204;2023-04-15T07:24:45;10.00;99.90
15717;DHT22;7960;50.908;4.204;2023-04-15T07:27:13;9.90;99.90
15717;DHT22;7960;50.908;4.204;2023-04-15T07:29:40;10.00;99.90
15717;DHT22;7960;50.908;4.204;2023-04-15T07:32:07;10.10;99.90
15717;DHT22;7960;50.908;4.204;2023-04-15T07:34:35;10.20;99.90
15717;DHT22;7960;50.908;4.204;2023-04-15T07:37:02;10.20;99.90
15717;DHT22;7960;50.908;4.204;2023-04-15T07:39:29;10.40;99.90
15717;DHT22;7960;50.908;4.204;2023-04-15T07:41:56;10.50;99.90
15717;DHT22;7960;50.908;4.204;2023-04-15T07:44:25;10.60;99.90
15717;DHT22;7960;50.908;4.204;2023-04-15T07:46:52;10.60;99.90
15717;DHT22;7960;50.908;4.204;2023-04-15T07:49:19;10.60;99.90
15717;DHT22;7960;50.908;4.204;2023-04-15T07:51:46;10.70;99.90
15717;DHT22;7960;50.908;4.204;2023-04-15T07:54:13;10.70;99.90
15717;DHT22;7960;50.908;4.204;2023-04-15T07:56:40;10.80;99.90
15717;DHT22;7960;50.908;4.204;2023-04-15T07:59:08;10.80;99.90
15717;DHT22;7960;50.908;4.204;2023-04-15T08:01:36;10.80;99.90
15717;DHT22;7960;50.908;4.204;2023-04-15T08:04:03;10.90;99.90
15717;DHT22;7960;50.908;4.204;2023-04-15T08:06:30;10.80;99.90
15717;DHT22;7960;50.908;4.204;2023-04-15T08:08:57;10.90;99.90
15717;DHT22;7960;50.908;4.204;2023-04-15T08:11:24;11.00;99.90
15717;DHT22;7960;50.908;4.204;2023-04-15T08:13:52;11.00;99.90
15717;DHT22;7960;50.908;4.204;2023-04-15T08:16:21;10.90;99.90
15717;DHT22;7960;50.908;4.204;2023-04-15T08:18:50;11.10;99.90
15717;DHT22;7960;50.908;4.204;2023-04-15T08:21:18;11.20;99.90
15717;DHT22;7960;50.908;4.204;2023-04-15T08:23:47;11.20;99.90
15717;DHT22;7960;50.908;4.204;2023-04-15T08:26:14;11.30;99.90
15717;DHT22;7960;50.908;4.204;2023-04-15T08:28:45;11.40;99.90
15717;DHT22;7960;50.908;4.204;2023-04-15T08:31:13;11.60;99.90
15717;DHT22;7960;50.908;4.204;2023-04-15T08:33:40;11.70;99.90
15717;DHT22;7960;50.908;4.204;2023-04-15T08:36:08;11.90;99.90
15717;DHT22;7960;50.908;4.204;2023-04-15T08:38:35;12.10;99.90
15717;DHT22;7960;50.908;4.204;2023-04-15T08:41:10;12.20;99.90
15717;DHT22;7960;50.908;4.204;2023-04-15T08:43:52;12.20;99.90
15717;DHT22;7960;50.908;4.204;2023-04-15T08:46:20;12.20;99.90
15717;DHT22;7960;50.908;4.204;2023-04-15T08:48:47;12.20;99.90
15717;DHT22;7960;50.908;4.204;2023-04-15T08:51:16;12.20;99.90
15717;DHT22;7960;50.908;4.204;2023-04-15T08:53:43;12.20;99.90
15717;DHT22;7960;50.908;4.204;2023-04-15T08:56:13;12.30;99.90
15717;DHT22;7960;50.908;4.204;2023-04-15T08:58:41;12.40;99.90
15717;DHT22;7960;50.908;4.204;2023-04-15T09:01:10;12.40;99.90
15717;DHT22;7960;50.908;4.204;2023-04-15T09:03:37;12.50;99.90
15717;DHT22;7960;50.908;4.204;2023-04-15T09:06:05;12.70;99.90
15717;DHT22;7960;50.908;4.204;2023-04-15T09:08:33;12.80;99.90
15717;DHT22;7960;50.908;4.204;2023-04-15T09:11:00;12.90;99.90
15717;DHT22;7960;50.908;4.204;2023-04-15T09:13:27;13.00;99.90
15717;DHT22;7960;50.908;4.204;2023-04-15T09:15:55;13.20;99.90
15717;DHT22;7960;50.908;4.204;2023-04-15T09:18:30;13.30;99.90
15717;DHT22;7960;50.908;4.204;2023-04-15T09:21:03;13.50;99.90
15717;DHT22;7960;50.908;4.204;2023-04-15T09:23:32;13.70;99.90
15717;DHT22;7960;50.908;4.204;2023-04-15T09:26:00;13.90;99.80
15717;DHT22;7960;50.908;4.204;2023-04-15T09:28:27;14.00;99.60
15717;DHT22;7960;50.908;4.204;2023-04-15T09:30:56;14.30;99.40
15717;DHT22;7960;50.908;4.204;2023-04-15T09:33:24;14.50;98.80
15717;DHT22;7960;50.908;4.204;2023-04-15T09:35:59;14.70;98.40
15717;DHT22;7960;50.908;4.204;2023-04-15T09:38:27;14.70;97.50
15717;DHT22;7960;50.908;4.204;2023-04-15T09:40:55;14.90;97.80
15717;DHT22;7960;50.908;4.204;2023-04-15T09:43:25;15.00;95.20
15717;DHT22;7960;50.908;4.204;2023-04-15T09:46:03;15.30;94.70
15717;DHT22;7960;50.908;4.204;2023-04-15T09:48:30;15.60;94.40
15717;DHT22;7960;50.908;4.204;2023-04-15T09:50:58;15.70;92.80
15717;DHT22;7960;50.908;4.204;2023-04-15T09:53:25;15.90;91.40
15717;DHT22;7960;50.908;4.204;2023-04-15T09:55:55;15.90;91.40
15717;DHT22;7960;50.908;4.204;2023-04-15T09:58:24;16.10;91.90
15717;DHT22;7960;50.908;4.204;2023-04-15T10:00:52;16.30;91.30
15717;DHT22;7960;50.908;4.204;2023-04-15T10:03:21;16.30;90.80
15717;DHT22;7960;50.908;4.204;2023-04-15T10:05:49;16.10;89.80
15717;DHT22;7960;50.908;4.204;2023-04-15T10:08:18;16.20;90.00
15717;DHT22;7960;50.908;4.204;2023-04-15T10:10:46;16.20;90.10
15717;DHT22;7960;50.908;4.204;2023-04-15T10:13:17;16.40;90.40
15717;DHT22;7960;50.908;4.204;2023-04-15T10:15:49;16.60;89.30
15717;DHT22;7960;50.908;4.204;2023-04-15T10:18:18;16.30;88.30
15717;DHT22;7960;50.908;4.204;2023-04-15T10:20:47;16.20;89.20
15717;DHT22;7960;50.908;4.204;2023-04-15T10:23:14;16.10;87.40
15717;DHT22;7960;50.908;4.204;2023-04-15T10:25:42;16.30;87.00
15717;DHT22;7960;50.908;4.204;2023-04-15T10:28:10;16.00;82.80
15717;DHT22;7960;50.908;4.204;2023-04-15T10:30:38;16.20;86.10
15717;DHT22;7960;50.908;4.204;2023-04-15T10:33:06;16.40;86.60
15717;DHT22;7960;50.908;4.204;2023-04-15T10:35:35;16.20;85.00
15717;DHT22;7960;50.908;4.204;2023-04-15T10:38:32;16.20;85.40
15717;DHT22;7960;50.908;4.204;2023-04-15T10:41:12;16.40;87.10
15717;DHT22;7960;50.908;4.204;2023-04-15T10:43:40;16.60;88.50
15717;DHT22;7960;50.908;4.204;2023-04-15T10:46:12;16.70;88.70
15717;DHT22;7960;50.908;4.204;2023-04-15T10:48:46;16.90;90.00
15717;DHT22;7960;50.908;4.204;2023-04-15T10:51:13;16.90;89.70
15717;DHT22;7960;50.908;4.204;2023-04-15T10:53:41;16.90;89.20
15717;DHT22;7960;50.908;4.204;2023-04-15T10:56:09;16.70;87.40
15717;DHT22;7960;50.908;4.204;2023-04-15T10:58:40;16.30;82.10
15717;DHT22;7960;50.908;4.204;2023-04-15T11:01:07;16.20;80.10
15717;DHT22;7960;50.908;4.204;2023-04-15T11:03:39;16.30;80.30
15717;DHT22;7960;50.908;4.204;2023-04-15T11:06:06;16.20;77.20
15717;DHT22;7960;50.908;4.204;2023-04-15T11:08:52;16.20;75.40
15717;DHT22;7960;50.908;4.204;2023-04-15T11:11:19;16.30;73.50
15717;DHT22;7960;50.908;4.204;2023-04-15T11:13:47;16.60;75.80
15717;DHT22;7960;50.908;4.204;2023-04-15T11:16:15;16.70;74.30
15717;DHT22;7960;50.908;4.204;2023-04-15T11:18:52;17.00;75.20
15717;DHT22;7960;50.908;4.204;2023-04-15T11:21:23;17.30;73.80
15717;DHT22;7960;50.908;4.204;2023-04-15T11:23:50;17.10;69.70
15717;DHT22;7960;50.908;4.204;2023-04-15T11:26:17;17.20;70.60
15717;DHT22;7960;50.908;4.204;2023-04-15T11:28:44;17.40;69.50
15717;DHT22;7960;50.908;4.204;2023-04-15T11:31:13;17.40;66.60
15717;DHT22;7960;50.908;4.204;2023-04-15T11:33:54;17.50;69.20
15717;DHT22;7960;50.908;4.204;2023-04-15T11:36:23;17.50;68.50
15717;DHT22;7960;50.908;4.204;2023-04-15T11:38:52;17.70;68.00
15717;DHT22;7960;50.908;4.204;2023-04-15T11:41:19;17.70;66.10
15717;DHT22;7960;50.908;4.204;2023-04-15T11:43:47;17.70;64.10
15717;DHT22;7960;50.908;4.204;2023-04-15T11:46:14;17.70;65.20
15717;DHT22;7960;50.908;4.204;2023-04-15T11:48:42;17.90;66.90
15717;DHT22;7960;50.908;4.204;2023-04-15T11:51:12;18.10;65.10
15717;DHT22;7960;50.908;4.204;2023-04-15T11:53:41;18.10;60.90
15717;DHT22;7960;50.908;4.204;2023-04-15T11:56:09;18.00;61.20
15717;DHT22;7960;50.908;4.204;2023-04-15T11:58:37;18.00;59.90
15717;DHT22;7960;50.908;4.204;2023-04-15T12:01:05;17.80;59.80
15717;DHT22;7960;50.908;4.204;2023-04-15T12:03:36;17.80;61.20
15717;DHT22;7960;50.908;4.204;2023-04-15T12:06:15;17.80;55.70
15717;DHT22;7960;50.908;4.204;2023-04-15T12:09:04;17.90;51.30
15717;DHT22;7960;50.908;4.204;2023-04-15T12:11:38;17.80;53.80
15717;DHT22;7960;50.908;4.204;2023-04-15T12:14:10;18.00;57.40
15717;DHT22;7960;50.908;4.204;2023-04-15T12:16:39;18.30;58.00
15717;DHT22;7960;50.908;4.204;2023-04-15T12:19:09;18.40;58.90
15717;DHT22;7960;50.908;4.204;2023-04-15T12:21:39;18.40;56.90
15717;DHT22;7960;50.908;4.204;2023-04-15T12:24:07;18.40;55.60
15717;DHT22;7960;50.908;4.204;2023-04-15T12:26:36;18.60;56.60
15717;DHT22;7960;50.908;4.204;2023-04-15T12:29:05;18.70;55.40
15717;DHT22;7960;50.908;4.204;2023-04-15T12:31:34;18.50;54.30
15717;DHT22;7960;50.908;4.204;2023-04-15T12:34:02;18.40;55.30
15717;DHT22;7960;50.908;4.204;2023-04-15T12:36:30;18.40;54.30
15717;DHT22;7960;50.908;4.204;2023-04-15T12:39:02;18.40;52.10
15717;DHT22;7960;50.908;4.204;2023-04-15T12:41:29;18.40;51.20
15717;DHT22;7960;50.908;4.204;2023-04-15T12:43:56;18.50;51.30
15717;DHT22;7960;50.908;4.204;2023-04-15T12:46:23;18.60;52.10
15717;DHT22;7960;50.908;4.204;2023-04-15T12:48:51;18.50;53.10
15717;DHT22;7960;50.908;4.204;2023-04-15T12:51:18;18.70;53.10
15717;DHT22;7960;50.908;4.204;2023-04-15T12:53:46;18.90;53.60
15717;DHT22;7960;50.908;4.204;2023-04-15T12:56:15;19.00;54.20
15717;DHT22;7960;50.908;4.204;2023-04-15T12:58:42;18.70;54.80
15717;DHT22;7960;50.908;4.204;2023-04-15T13:01:09;18.90;56.80
15717;DHT22;7960;50.908;4.204;2023-04-15T13:03:36;19.10;55.00
15717;DHT22;7960;50.908;4.204;2023-04-15T13:06:03;19.20;55.20
15717;DHT22;7960;50.908;4.204;2023-04-15T13:08:30;19.80;58.70
15717;DHT22;7960;50.908;4.204;2023-04-15T13:10:57;19.10;56.30
15717;DHT22;7960;50.908;4.204;2023-04-15T13:13:25;19.00;54.40
15717;DHT22;7960;50.908;4.204;2023-04-15T13:15:52;18.90;55.50
15717;DHT22;7960;50.908;4.204;2023-04-15T13:18:19;18.90;55.60
15717;DHT22;7960;50.908;4.204;2023-04-15T13:20:48;19.00;55.10
15717;DHT22;7960;50.908;4.204;2023-04-15T13:23:14;19.00;53.80
15717;DHT22;7960;50.908;4.204;2023-04-15T13:25:41;19.00;52.10
15717;DHT22;7960;50.908;4.204;2023-04-15T13:28:10;19.00;53.80
15717;DHT22;7960;50.908;4.204;2023-04-15T13:30:38;19.70;54.10
15717;DHT22;7960;50.908;4.204;2023-04-15T13:33:05;19.90;53.20
15717;DHT22;7960;50.908;4.204;2023-04-15T13:35:32;19.90;53.00
15717;DHT22;7960;50.908;4.204;2023-04-15T13:37:59;19.80;54.80
15717;DHT22;7960;50.908;4.204;2023-04-15T13:40:26;19.90;56.60
15717;DHT22;7960;50.908;4.204;2023-04-15T13:42:53;19.50;57.10
15717;DHT22;7960;50.908;4.204;2023-04-15T13:45:20;19.70;57.20
15717;DHT22;7960;50.908;4.204;2023-04-15T13:47:48;20.40;56.30
15717;DHT22;7960;50.908;4.204;2023-04-15T13:50:15;20.90;55.60
15717;DHT22;7960;50.908;4.204;2023-04-15T13:52:42;20.30;54.10
15717;DHT22;7960;50.908;4.204;2023-04-15T13:55:09;19.60;55.10
15717;DHT22;7960;50.908;4.204;2023-04-15T13:57:36;19.90;56.70
15717;DHT22;7960;50.908;4.204;2023-04-15T14:00:04;20.20;56.60
15717;DHT22;7960;50.908;4.204;2023-04-15T14:02:31;19.80;56.40
15717;DHT22;7960;50.908;4.204;2023-04-15T14:04:59;20.00;55.30
15717;DHT22;7960;50.908;4.204;2023-04-15T14:07:28;20.10;54.70
15717;DHT22;7960;50.908;4.204;2023-04-15T14:09:55;20.40;54.80
15717;DHT22;7960;50.908;4.204;2023-04-15T14:12:22;20.00;55.00
15717;DHT22;7960;50.908;4.204;2023-04-15T14:14:49;20.50;56.40
15717;DHT22;7960;50.908;4.204;2023-04-15T14:17:16;20.40;55.50
15717;DHT22;7960;50.908;4.204;2023-04-15T14:19:42;20.50;55.10
15717;DHT22;7960;50.908;4.204;2023-04-15T14:22:11;21.00;55.10
15717;DHT22;7960;50.908;4.204;2023-04-15T14:24:37;21.30;52.80
15717;DHT22;7960;50.908;4.204;2023-04-15T14:27:05;21.40;50.60
15717;DHT22;7960;50.908;4.204;2023-04-15T14:29:33;21.60;50.20
15717;DHT22;7960;50.908;4.204;2023-04-15T14:31:59;21.30;50.80
15717;DHT22;7960;50.908;4.204;2023-04-15T14:34:26;22.10;53.00
15717;DHT22;7960;50.908;4.204;2023-04-15T14:36:53;22.40;53.00
15717;DHT22;7960;50.908;4.204;2023-04-15T14:39:21;23.00;51.90
15717;DHT22;7960;50.908;4.204;2023-04-15T14:41:48;23.20;51.90
15717;DHT22;7960;50.908;4.204;2023-04-15T14:44:15;23.00;51.70
15717;DHT22;7960;50.908;4.204;2023-04-15T14:46:42;22.50;50.90
15717;DHT22;7960;50.908;4.204;2023-04-15T14:49:08;22.40;51.00
15717;DHT22;7960;50.908;4.204;2023-04-15T14:51:35;21.80;51.80
15717;DHT22;7960;50.908;4.204;2023-04-15T14:54:02;21.70;54.20
15717;DHT22;7960;50.908;4.204;2023-04-15T14:56:31;22.30;54.80
15717;DHT22;7960;50.908;4.204;2023-04-15T14:58:58;22.90;55.20
15717;DHT22;7960;50.908;4.204;2023-04-15T15:01:24;22.40;54.20
15717;DHT22;7960;50.908;4.204;2023-04-15T15:03:51;21.90;57.50
15717;DHT22;7960;50.908;4.204;2023-04-15T15:06:19;20.90;59.50
15717;DHT22;7960;50.908;4.204;2023-04-15T15:08:47;20.70;61.00
15717;DHT22;7960;50.908;4.204;2023-04-15T15:11:15;21.40;63.40
15717;DHT22;7960;50.908;4.204;2023-04-15T15:13:43;21.80;63.00
15717;DHT22;7960;50.908;4.204;2023-04-15T15:16:10;21.60;62.30
15717;DHT22;7960;50.908;4.204;2023-04-15T15:18:36;21.60;63.00
15717;DHT22;7960;50.908;4.204;2023-04-15T15:21:03;21.30;64.00
15717;DHT22;7960;50.908;4.204;2023-04-15T15:23:30;21.70;64.00
15717;DHT22;7960;50.908;4.204;2023-04-15T15:25:57;22.20;64.70
15717;DHT22;7960;50.908;4.204;2023-04-15T15:28:24;22.30;64.30
15717;DHT22;7960;50.908;4.204;2023-04-15T15:30:52;22.00;62.70
15717;DHT22;7960;50.908;4.204;2023-04-15T15:33:19;21.70;62.90
15717;DHT22;7960;50.908;4.204;2023-04-15T15:35:46;21.50;63.70
15717;DHT22;7960;50.908;4.204;2023-04-15T15:38:13;21.90;63.80
15717;DHT22;7960;50.908;4.204;2023-04-15T15:40:40;21.70;63.70
15717;DHT22;7960;50.908;4.204;2023-04-15T15:43:07;21.50;64.00
15717;DHT22;7960;50.908;4.204;2023-04-15T15:45:34;20.90;64.90
15717;DHT22;7960;50.908;4.204;2023-04-15T15:48:03;20.40;65.00
15717;DHT22;7960;50.908;4.204;2023-04-15T15:50:31;20.00;66.40
15717;DHT22;7960;50.908;4.204;2023-04-15T15:52:58;19.60;67.50